HEMM

Mersa Matruh Airport

Mersa Matruh, Egypt
METAR HEMM 260300Z 24012KT CAVOK 13/10 Q1006 NOSIG
Observed Flight Rules
Feb-26 @ 03:00 UTC (31 minutes ago) Visual Flight Rules
Wind Visibility Clouds
240° at 12 knots 10,000+ meters
  • Clear skies
Temperatures Readings
Current 13°C / 55°F
Dewpoint 10°C / 50°F
Humidity 82%
Altimeter 29.7" Hg
Pressure 1006 hPa
Elevation 30
METAR HEMM 260300Z 24012KT CAVOK 13/10 Q1006 NOSIG
Observed Flight Rules
Feb-26 @ 03:00 UTC
(31 minutes ago)
VFR
Wind Visibility
240° at 12 knots 10,000+ meters
Clouds
  • Clear skies
Temperature Dewpoint
13°C / 55°F 10°C / 50°F
Humidity Altimeter Pressure
82% 29.7" Hg 1006 hPa